createdAt,value
2023-11-23T00:01:08.690Z,71.30
2023-11-23T00:03:36.615Z,71.30
2023-11-23T00:06:04.705Z,71.30
2023-11-23T00:08:32.597Z,71.30
2023-11-23T00:11:00.544Z,71.40
2023-11-23T00:13:29.801Z,71.20
2023-11-23T00:15:57.726Z,71.20
2023-11-23T00:18:25.764Z,71.30
2023-11-23T00:20:53.818Z,71.30
2023-11-23T00:23:21.953Z,71.30
2023-11-23T00:25:49.876Z,71.40
2023-11-23T00:28:17.821Z,71.40
2023-11-23T00:30:47.137Z,71.40
2023-11-23T00:33:16.161Z,71.40
2023-11-23T00:35:44.990Z,71.40
2023-11-23T00:38:17.351Z,71.40
2023-11-23T00:40:45.380Z,71.40
2023-11-23T00:43:13.363Z,71.40
2023-11-23T00:45:41.348Z,71.40
2023-11-23T00:48:10.752Z,71.50
2023-11-23T00:50:38.823Z,71.40
2023-11-23T00:53:06.793Z,71.40
2023-11-23T00:55:34.821Z,71.40
2023-11-23T00:58:05.592Z,71.40
2023-11-23T01:00:33.958Z,71.40
2023-11-23T01:03:02.685Z,71.30
2023-11-23T01:05:32.090Z,71.30
2023-11-23T01:08:00.193Z,71.40
2023-11-23T01:10:28.204Z,71.40
2023-11-23T01:12:56.472Z,71.40
2023-11-23T01:15:24.877Z,71.40
2023-11-23T01:17:52.924Z,71.40
2023-11-23T01:20:21.286Z,71.50
2023-11-23T01:22:50.661Z,71.40
2023-11-23T01:25:19.406Z,71.40
2023-11-23T01:27:47.342Z,71.50
2023-11-23T01:30:15.514Z,71.40
2023-11-23T01:32:43.607Z,71.50
2023-11-23T01:35:11.749Z,71.50
2023-11-23T01:37:40.116Z,71.40
2023-11-23T01:40:11.567Z,71.50
2023-11-23T01:42:39.751Z,71.50
2023-11-23T01:45:08.319Z,71.50
2023-11-23T01:47:37.648Z,71.50
2023-11-23T01:50:06.631Z,71.40
2023-11-23T01:52:35.027Z,71.50
2023-11-23T01:55:03.354Z,71.50
2023-11-23T01:57:35.046Z,71.50
2023-11-23T02:00:06.930Z,71.50
2023-11-23T02:02:41.190Z,71.50
2023-11-23T02:05:10.812Z,71.50
2023-11-23T02:07:39.620Z,71.50
2023-11-23T02:10:09.305Z,71.50
2023-11-23T02:12:39.129Z,71.50
2023-11-23T02:15:08.206Z,71.60
2023-11-23T02:17:36.167Z,71.50
2023-11-23T02:20:09.910Z,71.50
2023-11-23T02:22:37.942Z,71.50
2023-11-23T02:25:08.159Z,71.50
2023-11-23T02:27:37.454Z,71.50
2023-11-23T02:30:07.188Z,71.50
2023-11-23T02:32:35.850Z,71.50
2023-11-23T02:35:04.554Z,71.50
2023-11-23T02:37:32.733Z,71.50
2023-11-23T02:40:00.831Z,71.50
2023-11-23T02:42:30.804Z,71.60
2023-11-23T02:44:58.825Z,71.60
2023-11-23T02:47:26.820Z,71.50
2023-11-23T02:49:54.999Z,71.50
2023-11-23T02:52:22.996Z,71.60
2023-11-23T02:54:51.100Z,71.50
2023-11-23T02:57:19.308Z,71.60
2023-11-23T02:59:48.645Z,71.60
2023-11-23T03:02:16.699Z,71.60
2023-11-23T03:04:44.642Z,71.60
2023-11-23T03:07:12.646Z,71.60
2023-11-23T03:09:40.739Z,71.60
2023-11-23T03:12:08.890Z,71.60
2023-11-23T03:14:36.992Z,71.60
2023-11-23T03:17:09.065Z,71.60
2023-11-23T03:19:37.399Z,71.60
2023-11-23T03:22:06.118Z,71.60
2023-11-23T03:24:34.136Z,71.60
2023-11-23T03:27:02.045Z,71.60
2023-11-23T03:29:30.134Z,71.60
2023-11-23T03:31:58.086Z,71.60
2023-11-23T03:34:27.598Z,71.50
2023-11-23T03:36:56.624Z,71.60
2023-11-23T03:39:24.726Z,71.60
2023-11-23T03:41:52.833Z,71.60
2023-11-23T03:44:21.144Z,71.50
2023-11-23T03:46:49.096Z,71.50
2023-11-23T03:49:17.159Z,71.50
2023-11-23T03:51:46.609Z,71.50
2023-11-23T03:54:15.877Z,71.60
2023-11-23T03:56:43.922Z,71.60
2023-11-23T03:59:12.662Z,71.60
2023-11-23T04:01:45.248Z,71.50
2023-11-23T04:04:13.776Z,71.60
2023-11-23T04:06:42.218Z,71.60
2023-11-23T04:09:11.760Z,71.60
2023-11-23T04:11:39.773Z,71.60
2023-11-23T04:14:07.818Z,71.50
2023-11-23T04:16:35.753Z,71.60
2023-11-23T04:19:06.398Z,71.50
2023-11-23T04:21:34.263Z,71.50
2023-11-23T04:24:02.319Z,71.50
2023-11-23T04:26:34.644Z,71.50
2023-11-23T04:29:02.675Z,71.50
2023-11-23T04:31:30.767Z,71.50
2023-11-23T04:33:58.741Z,71.50
2023-11-23T04:36:29.429Z,71.50
2023-11-23T04:38:57.535Z,71.50
2023-11-23T04:41:25.468Z,71.50
2023-11-23T04:43:54.733Z,71.50
2023-11-23T04:46:22.768Z,71.60
2023-11-23T04:48:50.690Z,71.60
2023-11-23T04:51:18.685Z,71.50
2023-11-23T04:53:46.682Z,71.60
2023-11-23T04:56:15.033Z,71.50
2023-11-23T04:58:43.071Z,71.50
2023-11-23T05:01:12.477Z,71.50
2023-11-23T05:03:40.644Z,71.50
2023-11-23T05:06:09.253Z,71.50
2023-11-23T05:08:37.825Z,71.60
2023-11-23T05:11:06.014Z,71.60
2023-11-23T05:13:33.996Z,71.50
2023-11-23T05:16:01.945Z,71.50
2023-11-23T05:18:31.277Z,71.50
2023-11-23T05:20:59.333Z,71.50
2023-11-23T05:23:27.249Z,71.50
2023-11-23T05:25:55.304Z,71.50
2023-11-23T05:28:24.065Z,71.50
2023-11-23T05:30:52.022Z,71.50
2023-11-23T05:33:21.114Z,71.50
2023-11-23T05:35:51.621Z,71.50
2023-11-23T05:38:19.552Z,71.50
2023-11-23T05:40:47.543Z,71.50
2023-11-23T05:43:15.553Z,71.50
2023-11-23T05:45:43.804Z,71.50
2023-11-23T05:48:11.860Z,71.50
2023-11-23T05:50:39.945Z,71.50
2023-11-23T05:53:09.299Z,71.60
2023-11-23T05:55:37.144Z,71.50
2023-11-23T05:58:05.020Z,71.50
2023-11-23T06:00:32.936Z,71.50
2023-11-23T06:03:01.208Z,71.50
2023-11-23T06:05:29.833Z,71.50
2023-11-23T06:07:57.813Z,71.50
2023-11-23T06:10:28.209Z,71.60
2023-11-23T06:12:57.629Z,71.60
2023-11-23T06:15:25.743Z,71.50
2023-11-23T06:18:04.343Z,71.60
2023-11-23T06:20:38.962Z,71.60
2023-11-23T06:23:07.303Z,71.60
2023-11-23T06:25:36.601Z,71.60
2023-11-23T06:28:14.608Z,71.50
2023-11-23T06:30:45.828Z,71.60
2023-11-23T06:33:14.359Z,71.50
2023-11-23T06:35:42.482Z,71.60
2023-11-23T06:38:10.522Z,71.50
2023-11-23T06:40:39.833Z,71.50
2023-11-23T06:43:07.901Z,71.60
2023-11-23T06:45:35.785Z,71.60
2023-11-23T06:48:03.794Z,71.60
2023-11-23T06:50:31.796Z,71.60
2023-11-23T06:52:59.862Z,71.60
2023-11-23T06:55:27.778Z,71.60
2023-11-23T06:57:57.061Z,71.60
2023-11-23T07:00:25.489Z,71.60
2023-11-23T07:02:54.336Z,71.60
2023-11-23T07:05:25.088Z,71.60
2023-11-23T07:07:53.233Z,71.60
2023-11-23T07:10:22.975Z,71.60
2023-11-23T07:12:51.679Z,71.60
2023-11-23T07:15:25.055Z,71.60
2023-11-23T07:17:53.168Z,71.60
2023-11-23T07:20:21.271Z,71.60
2023-11-23T07:22:49.204Z,71.60
2023-11-23T07:25:18.326Z,71.60
2023-11-23T07:27:46.523Z,71.60
2023-11-23T07:30:15.480Z,71.60
2023-11-23T07:32:44.944Z,71.60
2023-11-23T07:35:13.696Z,71.60
2023-11-23T07:37:41.616Z,71.60
2023-11-23T07:40:15.504Z,71.60
2023-11-23T07:42:44.948Z,71.60
2023-11-23T07:45:13.756Z,71.60
2023-11-23T07:47:43.683Z,71.60
2023-11-23T07:50:13.650Z,71.60
2023-11-23T07:52:41.838Z,71.60
2023-11-23T07:55:11.772Z,71.60
2023-11-23T07:57:39.933Z,71.60
2023-11-23T08:00:09.391Z,71.60
2023-11-23T08:02:37.776Z,71.60
2023-11-23T08:05:06.832Z,71.60
2023-11-23T08:07:36.244Z,71.60
2023-11-23T08:10:07.919Z,71.60
2023-11-23T08:12:36.045Z,71.60
2023-11-23T08:15:05.898Z,71.60
2023-11-23T08:17:33.934Z,71.60
2023-11-23T08:20:01.860Z,71.60
2023-11-23T08:22:29.824Z,71.70
2023-11-23T08:24:59.332Z,71.70
2023-11-23T08:27:27.360Z,71.60
2023-11-23T08:29:56.353Z,71.70
2023-11-23T08:32:24.269Z,71.70
2023-11-23T08:34:52.274Z,71.70
2023-11-23T08:37:20.217Z,71.70
2023-11-23T08:39:50.017Z,71.70
2023-11-23T08:42:20.360Z,71.70
2023-11-23T08:44:48.508Z,71.70
2023-11-23T08:47:16.687Z,71.70
2023-11-23T08:49:44.608Z,71.70
2023-11-23T08:52:14.510Z,71.70
2023-11-23T08:54:43.837Z,71.60
2023-11-23T08:57:12.850Z,71.70
2023-11-23T08:59:42.330Z,71.70
2023-11-23T09:02:19.415Z,71.70
2023-11-23T09:04:49.853Z,71.70
2023-11-23T09:07:18.756Z,71.70
2023-11-23T09:09:46.950Z,71.70
2023-11-23T09:12:15.144Z,71.80
2023-11-23T09:14:49.397Z,71.70
2023-11-23T09:17:18.517Z,71.70
2023-11-23T09:19:47.403Z,71.70
2023-11-23T09:22:15.428Z,71.80
2023-11-23T09:24:43.935Z,71.70
2023-11-23T09:27:12.487Z,71.70
2023-11-23T09:29:40.799Z,71.70
2023-11-23T09:32:10.770Z,71.70
2023-11-23T09:34:38.684Z,71.70
2023-11-23T09:37:07.712Z,71.80
2023-11-23T09:39:36.714Z,71.80
2023-11-23T09:42:06.910Z,71.80
2023-11-23T09:44:37.215Z,71.80
2023-11-23T09:47:06.881Z,71.80
2023-11-23T09:49:38.525Z,71.70
2023-11-23T09:52:08.404Z,71.80
2023-11-23T09:54:37.227Z,71.80
2023-11-23T09:57:06.116Z,71.70
2023-11-23T09:59:34.515Z,71.80
2023-11-23T10:02:07.154Z,71.80
2023-11-23T10:04:36.686Z,71.80
2023-11-23T10:07:06.486Z,71.80
2023-11-23T10:09:35.448Z,71.80
2023-11-23T10:12:04.725Z,71.80
2023-11-23T10:14:32.820Z,71.80
2023-11-23T10:17:00.929Z,71.80
2023-11-23T10:19:28.918Z,71.80
2023-11-23T10:22:01.085Z,71.80
2023-11-23T10:24:29.660Z,71.80
2023-11-23T10:26:58.273Z,71.80
2023-11-23T10:29:29.866Z,71.80
2023-11-23T10:32:00.584Z,71.70
2023-11-23T10:34:30.099Z,71.70
2023-11-23T10:37:00.000Z,71.70
2023-11-23T10:39:29.314Z,71.70
2023-11-23T10:41:58.383Z,71.70
2023-11-23T10:44:29.839Z,71.80
2023-11-23T10:47:00.499Z,71.80
2023-11-23T10:49:29.330Z,71.80
2023-11-23T10:51:57.590Z,71.80
2023-11-23T10:54:26.903Z,71.80
2023-11-23T10:56:56.176Z,71.80
2023-11-23T10:59:24.853Z,71.80
2023-11-23T11:01:54.715Z,71.70
2023-11-23T11:04:23.793Z,71.70
2023-11-23T11:06:55.380Z,71.70
2023-11-23T11:09:29.794Z,71.70
2023-11-23T11:12:03.448Z,71.70
2023-11-23T11:14:35.117Z,71.70
2023-11-23T11:17:03.548Z,71.60
2023-11-23T11:19:31.526Z,71.70
2023-11-23T11:22:01.341Z,71.60
2023-11-23T11:24:29.422Z,71.70
2023-11-23T11:27:02.753Z,71.70
2023-11-23T11:29:31.676Z,71.70
2023-11-23T11:31:59.646Z,71.70
2023-11-23T11:34:29.401Z,71.60
2023-11-23T11:36:59.804Z,71.60
2023-11-23T11:39:30.811Z,71.60
2023-11-23T11:42:00.990Z,71.60
2023-11-23T11:44:34.557Z,71.60
2023-11-23T11:47:02.856Z,71.60
2023-11-23T11:49:31.574Z,71.60
2023-11-23T11:51:59.601Z,71.50
2023-11-23T11:54:27.688Z,71.60
2023-11-23T11:56:55.883Z,71.50
2023-11-23T11:59:26.150Z,71.50
2023-11-23T12:01:59.973Z,71.50
2023-11-23T12:04:28.148Z,71.50
2023-11-23T12:06:57.912Z,71.50
2023-11-23T12:09:34.544Z,71.50
2023-11-23T12:12:11.685Z,71.40
2023-11-23T12:14:39.962Z,71.50
2023-11-23T12:17:13.776Z,71.50
2023-11-23T12:19:51.189Z,71.50
2023-11-23T12:22:21.562Z,71.50
2023-11-23T12:24:49.479Z,71.50
2023-11-23T12:27:17.558Z,71.50
2023-11-23T12:29:45.567Z,71.50
2023-11-23T12:32:14.929Z,71.50
2023-11-23T12:34:43.017Z,71.50
2023-11-23T12:37:10.937Z,71.50
2023-11-23T12:39:39.172Z,71.50
2023-11-23T12:42:07.291Z,71.50
2023-11-23T12:44:36.543Z,71.50
2023-11-23T12:47:05.168Z,71.50
2023-11-23T12:49:35.002Z,71.60
2023-11-23T12:52:03.185Z,71.60
2023-11-23T12:54:31.697Z,71.60
2023-11-23T12:56:59.942Z,71.60
2023-11-23T12:59:27.900Z,71.60
2023-11-23T13:01:59.056Z,71.60
2023-11-23T13:04:30.671Z,71.60
2023-11-23T13:07:00.400Z,71.60
2023-11-23T13:09:29.489Z,71.60
2023-11-23T13:11:59.756Z,71.60
2023-11-23T13:14:28.078Z,71.60
2023-11-23T13:16:56.049Z,71.60
2023-11-23T13:19:30.651Z,71.60
2023-11-23T13:22:06.976Z,71.60
2023-11-23T13:24:37.290Z,71.50
2023-11-23T13:27:05.581Z,71.50
2023-11-23T13:29:36.281Z,71.50
2023-11-23T13:32:05.677Z,71.50
2023-11-23T13:34:33.895Z,71.50
2023-11-23T13:37:02.207Z,71.50
2023-11-23T13:39:32.847Z,71.60
2023-11-23T13:42:01.162Z,71.50
2023-11-23T13:44:29.255Z,71.50
2023-11-23T13:46:58.362Z,71.50
2023-11-23T13:49:27.514Z,71.60
2023-11-23T13:51:55.822Z,71.50
2023-11-23T13:54:23.859Z,71.50
2023-11-23T13:56:53.270Z,71.50
2023-11-23T13:59:21.648Z,71.50
2023-11-23T14:01:50.708Z,71.60
2023-11-23T14:04:18.670Z,71.60
2023-11-23T14:06:46.683Z,71.60
2023-11-23T14:09:19.469Z,71.60
2023-11-23T14:11:48.583Z,71.50
2023-11-23T14:14:18.152Z,71.60
2023-11-23T14:16:46.610Z,71.60
2023-11-23T14:19:17.457Z,71.50
2023-11-23T14:21:47.222Z,71.60
2023-11-23T14:24:16.436Z,71.50
2023-11-23T14:26:44.693Z,71.50
2023-11-23T14:29:12.926Z,71.60
2023-11-23T14:31:43.202Z,71.50
2023-11-23T14:34:12.117Z,71.50
2023-11-23T14:36:42.207Z,71.50
2023-11-23T14:39:10.419Z,71.50
2023-11-23T14:41:38.410Z,71.50
2023-11-23T14:44:06.644Z,71.60
2023-11-23T14:46:34.734Z,71.60
2023-11-23T14:49:06.298Z,71.60
2023-11-23T14:51:36.128Z,71.60
2023-11-23T14:54:10.527Z,71.60
2023-11-23T14:56:40.356Z,71.60
2023-11-23T14:59:08.796Z,71.60
2023-11-23T15:01:36.907Z,71.60
2023-11-23T15:04:08.023Z,71.60
2023-11-23T15:06:36.568Z,71.60
2023-11-23T15:09:05.811Z,71.50
2023-11-23T15:11:33.842Z,71.50
2023-11-23T15:14:01.894Z,71.50
2023-11-23T15:16:31.518Z,71.60
2023-11-23T15:19:01.565Z,71.60
2023-11-23T15:21:31.858Z,71.60
2023-11-23T15:24:01.612Z,71.50
2023-11-23T15:26:30.514Z,71.60
2023-11-23T15:29:00.412Z,71.60
2023-11-23T15:31:28.490Z,71.60
2023-11-23T15:33:57.104Z,71.60
2023-11-23T15:36:25.083Z,71.60
2023-11-23T15:38:54.605Z,71.60
2023-11-23T15:41:23.161Z,71.60
2023-11-23T15:43:51.102Z,71.70
2023-11-23T15:46:19.061Z,71.70
2023-11-23T15:48:47.001Z,71.60
2023-11-23T15:51:15.536Z,71.70
2023-11-23T15:53:43.517Z,71.70
2023-11-23T15:56:17.440Z,71.80
2023-11-23T15:58:45.406Z,71.70
2023-11-23T16:01:14.251Z,71.70
2023-11-23T16:03:42.418Z,71.70
2023-11-23T16:06:10.614Z,71.70
2023-11-23T16:08:39.073Z,71.70
2023-11-23T16:11:07.390Z,71.70
2023-11-23T16:13:36.863Z,71.70
2023-11-23T16:16:05.019Z,71.70
2023-11-23T16:18:34.533Z,71.80
2023-11-23T16:21:02.549Z,71.70
2023-11-23T16:23:30.666Z,71.70
2023-11-23T16:25:58.605Z,71.80
2023-11-23T16:28:26.709Z,71.80
2023-11-23T16:30:56.239Z,71.70
2023-11-23T16:33:24.260Z,71.80
2023-11-23T16:35:55.386Z,71.70
2023-11-23T16:38:23.628Z,71.70
2023-11-23T16:40:53.029Z,71.80
2023-11-23T16:43:21.100Z,71.80
2023-11-23T16:45:51.272Z,71.80
2023-11-23T16:48:22.891Z,71.80
2023-11-23T16:50:51.471Z,71.80
2023-11-23T16:53:20.807Z,71.80
2023-11-23T16:55:48.817Z,71.80
2023-11-23T16:58:16.769Z,71.80
2023-11-23T17:00:45.146Z,71.80
2023-11-23T17:03:14.190Z,71.70
2023-11-23T17:05:44.548Z,71.80
2023-11-23T17:08:14.636Z,71.80
2023-11-23T17:10:42.643Z,71.70
2023-11-23T17:13:12.730Z,71.70
2023-11-23T17:15:40.685Z,71.80
2023-11-23T17:18:08.770Z,71.80
2023-11-23T17:20:36.811Z,71.80
2023-11-23T17:23:06.500Z,71.70
2023-11-23T17:25:39.855Z,71.80
2023-11-23T17:28:08.461Z,71.80
2023-11-23T17:30:36.810Z,71.80
2023-11-23T17:33:05.114Z,71.80
2023-11-23T17:35:33.137Z,71.80
2023-11-23T17:38:01.154Z,71.80
2023-11-23T17:40:30.543Z,71.80
2023-11-23T17:42:58.568Z,71.80
2023-11-23T17:45:26.495Z,71.80
2023-11-23T17:47:54.589Z,71.80
2023-11-23T17:50:22.795Z,71.80
2023-11-23T17:52:52.123Z,71.90
2023-11-23T17:55:20.198Z,71.80
2023-11-23T17:57:50.101Z,71.80
2023-11-23T18:00:19.350Z,71.90
2023-11-23T18:02:47.631Z,71.80
2023-11-23T18:05:15.907Z,71.80
2023-11-23T18:07:43.849Z,71.80
2023-11-23T18:10:15.568Z,71.80
2023-11-23T18:12:44.126Z,71.90
2023-11-23T18:15:14.044Z,71.80
2023-11-23T18:17:43.015Z,71.80
2023-11-23T18:20:13.115Z,71.90
2023-11-23T18:22:41.292Z,71.90
2023-11-23T18:25:09.389Z,71.90
2023-11-23T18:27:37.596Z,71.80
2023-11-23T18:30:06.066Z,71.90
2023-11-23T18:32:35.985Z,71.90
2023-11-23T18:35:04.314Z,71.90
2023-11-23T18:37:33.736Z,71.90
2023-11-23T18:40:13.942Z,71.80
2023-11-23T18:42:43.449Z,71.80
2023-11-23T18:45:12.103Z,71.90
2023-11-23T18:47:42.771Z,71.80
2023-11-23T18:50:11.618Z,71.90
2023-11-23T18:52:39.929Z,72.00
2023-11-23T18:55:09.838Z,72.00
2023-11-23T18:57:37.995Z,71.90
2023-11-23T19:00:09.677Z,71.90
2023-11-23T19:02:39.022Z,72.00
2023-11-23T19:05:15.147Z,72.00
2023-11-23T19:07:43.667Z,72.10
2023-11-23T19:10:12.929Z,72.00
2023-11-23T19:12:41.327Z,72.00
2023-11-23T19:15:11.598Z,72.00
2023-11-23T19:17:43.236Z,72.00
2023-11-23T19:20:14.206Z,72.00
2023-11-23T19:22:42.470Z,72.00
2023-11-23T19:25:11.103Z,72.00
2023-11-23T19:27:39.741Z,72.00
2023-11-23T19:30:08.772Z,72.00
2023-11-23T19:32:37.962Z,72.00
2023-11-23T19:35:10.409Z,72.00
2023-11-23T19:37:40.179Z,72.00
2023-11-23T19:40:11.389Z,72.10
2023-11-23T19:42:40.764Z,72.00
2023-11-23T19:45:09.619Z,72.10
2023-11-23T19:47:38.031Z,72.10
2023-11-23T19:50:07.464Z,72.00
2023-11-23T19:52:37.872Z,72.00
2023-11-23T19:55:08.052Z,72.10
2023-11-23T19:57:36.146Z,72.10
2023-11-23T20:00:07.843Z,72.10
2023-11-23T20:02:35.889Z,72.10
2023-11-23T20:05:04.359Z,72.10
2023-11-23T20:07:33.693Z,72.10
2023-11-23T20:10:02.397Z,72.10
2023-11-23T20:12:31.802Z,72.10
2023-11-23T20:14:59.804Z,72.00
2023-11-23T20:17:27.723Z,72.10
2023-11-23T20:19:56.142Z,72.20
2023-11-23T20:22:24.203Z,72.10
2023-11-23T20:24:52.561Z,72.20
2023-11-23T20:27:20.623Z,72.20
2023-11-23T20:29:49.951Z,72.20
2023-11-23T20:32:17.839Z,72.30
2023-11-23T20:34:47.915Z,72.30
2023-11-23T20:37:15.905Z,72.20
2023-11-23T20:39:45.168Z,72.30
2023-11-23T20:42:13.574Z,72.30
2023-11-23T20:44:42.805Z,72.30
2023-11-23T20:47:12.187Z,72.30
2023-11-23T20:49:39.138Z,72.30
2023-11-23T20:52:07.812Z,72.30
2023-11-23T20:54:35.956Z,72.30
2023-11-23T20:57:04.237Z,72.30
2023-11-23T20:59:32.488Z,72.30
2023-11-23T21:02:01.106Z,72.40
2023-11-23T21:04:33.141Z,72.30
2023-11-23T21:07:03.194Z,72.40
2023-11-23T21:09:31.435Z,72.30
2023-11-23T21:12:02.924Z,72.40
2023-11-23T21:14:31.287Z,72.40
2023-11-23T21:17:01.452Z,72.40
2023-11-23T21:19:30.943Z,72.30
2023-11-23T21:21:58.956Z,72.40
2023-11-23T21:24:26.924Z,72.40
2023-11-23T21:26:55.215Z,72.40
2023-11-23T21:29:23.103Z,72.50
2023-11-23T21:31:51.155Z,72.50
2023-11-23T21:34:19.133Z,72.50
2023-11-23T21:36:48.637Z,72.50
2023-11-23T21:39:17.384Z,72.50
2023-11-23T21:41:48.484Z,72.50
2023-11-23T21:44:19.194Z,72.50
2023-11-23T21:46:47.282Z,72.50
2023-11-23T21:49:15.223Z,72.60
2023-11-23T21:51:45.378Z,72.70
2023-11-23T21:54:14.902Z,72.70
2023-11-23T21:56:43.381Z,72.70
2023-11-23T21:59:11.910Z,72.70
2023-11-23T22:01:40.155Z,72.70
2023-11-23T22:04:11.470Z,72.60
2023-11-23T22:06:39.541Z,72.60
2023-11-23T22:09:10.279Z,72.60
2023-11-23T22:11:44.584Z,72.70
2023-11-23T22:14:13.295Z,72.70
2023-11-23T22:16:41.473Z,72.70
2023-11-23T22:19:09.814Z,72.80
2023-11-23T22:21:39.313Z,72.70
2023-11-23T22:24:07.835Z,72.70
2023-11-23T22:26:36.234Z,72.70
2023-11-23T22:29:05.584Z,72.80
2023-11-23T22:31:34.378Z,72.70
2023-11-23T22:34:02.694Z,72.70
2023-11-23T22:36:30.967Z,72.70
2023-11-23T22:38:59.963Z,72.70
2023-11-23T22:41:28.785Z,72.70
2023-11-23T22:43:57.100Z,72.80
2023-11-23T22:46:26.743Z,72.80
2023-11-23T22:48:54.808Z,72.80
2023-11-23T22:51:22.866Z,72.80
2023-11-23T22:53:50.962Z,72.90
2023-11-23T22:56:19.081Z,72.90
2023-11-23T22:58:46.991Z,72.90
2023-11-23T23:01:15.619Z,73.00
2023-11-23T23:03:45.132Z,73.00
2023-11-23T23:06:13.534Z,73.00
2023-11-23T23:08:41.529Z,73.00
2023-11-23T23:11:11.468Z,73.10
2023-11-23T23:13:39.642Z,73.10
2023-11-23T23:16:07.765Z,73.00
2023-11-23T23:18:35.689Z,73.10
2023-11-23T23:21:05.929Z,73.00
2023-11-23T23:23:33.852Z,73.00
2023-11-23T23:26:02.873Z,73.00
2023-11-23T23:28:32.650Z,73.10
2023-11-23T23:31:01.107Z,73.10
2023-11-23T23:33:29.109Z,73.10
2023-11-23T23:35:58.202Z,73.20
2023-11-23T23:38:27.545Z,73.20
2023-11-23T23:40:55.516Z,73.20
2023-11-23T23:43:23.831Z,73.10
2023-11-23T23:45:51.924Z,73.20
2023-11-23T23:48:20.053Z,73.20
2023-11-23T23:50:47.989Z,73.20
2023-11-23T23:53:15.954Z,73.20
2023-11-23T23:55:46.262Z,73.20
2023-11-23T23:58:14.201Z,73.20
